sensor_id;sensor_type;location;lat;lon;timestamp;P1;durP1;ratioP1;P2;durP2;ratioP2
23714;SDS011;12036;50.858;4.472;2023-09-07T00:01:19;5.72;;;5.00;;
23714;SDS011;12036;50.858;4.472;2023-09-07T00:03:45;6.40;;;5.00;;
23714;SDS011;12036;50.858;4.472;2023-09-07T00:06:10;8.85;;;4.70;;
23714;SDS011;12036;50.858;4.472;2023-09-07T00:08:36;6.93;;;5.05;;
23714;SDS011;12036;50.858;4.472;2023-09-07T00:11:02;10.50;;;5.30;;
23714;SDS011;12036;50.858;4.472;2023-09-07T00:13:29;8.25;;;4.90;;
23714;SDS011;12036;50.858;4.472;2023-09-07T00:15:57;5.88;;;5.13;;
23714;SDS011;12036;50.858;4.472;2023-09-07T00:18:25;8.25;;;5.30;;
23714;SDS011;12036;50.858;4.472;2023-09-07T00:20:50;8.45;;;6.00;;
23714;SDS011;12036;50.858;4.472;2023-09-07T00:23:16;6.35;;;5.38;;
23714;SDS011;12036;50.858;4.472;2023-09-07T00:25:42;6.03;;;5.38;;
23714;SDS011;12036;50.858;4.472;2023-09-07T00:28:07;6.43;;;5.10;;
23714;SDS011;12036;50.858;4.472;2023-09-07T00:30:33;7.63;;;5.15;;
23714;SDS011;12036;50.858;4.472;2023-09-07T00:32:58;9.55;;;5.68;;
23714;SDS011;12036;50.858;4.472;2023-09-07T00:35:24;8.70;;;5.72;;
23714;SDS011;12036;50.858;4.472;2023-09-07T00:37:50;10.00;;;5.75;;
23714;SDS011;12036;50.858;4.472;2023-09-07T00:40:15;9.35;;;6.30;;
23714;SDS011;12036;50.858;4.472;2023-09-07T00:42:41;10.13;;;6.55;;
23714;SDS011;12036;50.858;4.472;2023-09-07T00:45:07;7.13;;;6.10;;
23714;SDS011;12036;50.858;4.472;2023-09-07T00:47:33;9.02;;;6.22;;
23714;SDS011;12036;50.858;4.472;2023-09-07T00:50:01;8.27;;;5.82;;
23714;SDS011;12036;50.858;4.472;2023-09-07T00:52:28;7.85;;;5.60;;
23714;SDS011;12036;50.858;4.472;2023-09-07T00:54:54;7.55;;;5.68;;
23714;SDS011;12036;50.858;4.472;2023-09-07T00:57:20;7.57;;;6.03;;
23714;SDS011;12036;50.858;4.472;2023-09-07T00:59:45;8.32;;;5.53;;
23714;SDS011;12036;50.858;4.472;2023-09-07T01:02:11;9.00;;;5.78;;
23714;SDS011;12036;50.858;4.472;2023-09-07T01:04:37;8.88;;;5.07;;
23714;SDS011;12036;50.858;4.472;2023-09-07T01:07:03;12.73;;;6.32;;
23714;SDS011;12036;50.858;4.472;2023-09-07T01:09:35;11.10;;;6.05;;
23714;SDS011;12036;50.858;4.472;2023-09-07T01:12:04;10.52;;;6.00;;
23714;SDS011;12036;50.858;4.472;2023-09-07T01:14:32;11.07;;;5.85;;
23714;SDS011;12036;50.858;4.472;2023-09-07T01:16:58;10.63;;;6.20;;
23714;SDS011;12036;50.858;4.472;2023-09-07T01:19:24;12.75;;;6.45;;
23714;SDS011;12036;50.858;4.472;2023-09-07T01:21:49;6.82;;;5.57;;
23714;SDS011;12036;50.858;4.472;2023-09-07T01:24:16;8.57;;;5.20;;
23714;SDS011;12036;50.858;4.472;2023-09-07T01:26:42;11.98;;;6.15;;
23714;SDS011;12036;50.858;4.472;2023-09-07T01:29:08;8.82;;;6.07;;
23714;SDS011;12036;50.858;4.472;2023-09-07T01:31:35;7.47;;;5.43;;
23714;SDS011;12036;50.858;4.472;2023-09-07T01:34:01;8.45;;;5.68;;
23714;SDS011;12036;50.858;4.472;2023-09-07T01:36:27;10.25;;;5.20;;
23714;SDS011;12036;50.858;4.472;2023-09-07T01:38:52;8.13;;;5.25;;
23714;SDS011;12036;50.858;4.472;2023-09-07T01:41:18;7.47;;;5.05;;
23714;SDS011;12036;50.858;4.472;2023-09-07T01:43:44;9.60;;;5.70;;
23714;SDS011;12036;50.858;4.472;2023-09-07T01:46:09;15.48;;;5.95;;
23714;SDS011;12036;50.858;4.472;2023-09-07T01:48:35;8.90;;;5.53;;
23714;SDS011;12036;50.858;4.472;2023-09-07T01:51:01;6.03;;;5.00;;
23714;SDS011;12036;50.858;4.472;2023-09-07T01:53:26;7.82;;;5.40;;
23714;SDS011;12036;50.858;4.472;2023-09-07T01:55:55;8.25;;;5.72;;
23714;SDS011;12036;50.858;4.472;2023-09-07T01:58:21;7.72;;;5.45;;
23714;SDS011;12036;50.858;4.472;2023-09-07T02:00:49;7.45;;;5.53;;
23714;SDS011;12036;50.858;4.472;2023-09-07T02:03:15;9.30;;;5.20;;
23714;SDS011;12036;50.858;4.472;2023-09-07T02:05:40;7.72;;;5.63;;
23714;SDS011;12036;50.858;4.472;2023-09-07T02:08:06;8.00;;;5.50;;
23714;SDS011;12036;50.858;4.472;2023-09-07T02:10:32;8.85;;;5.40;;
23714;SDS011;12036;50.858;4.472;2023-09-07T02:12:58;10.00;;;5.85;;
23714;SDS011;12036;50.858;4.472;2023-09-07T02:15:24;7.57;;;5.50;;
23714;SDS011;12036;50.858;4.472;2023-09-07T02:17:50;5.75;;;5.18;;
23714;SDS011;12036;50.858;4.472;2023-09-07T02:20:15;6.22;;;4.63;;
23714;SDS011;12036;50.858;4.472;2023-09-07T02:22:41;8.40;;;5.15;;
23714;SDS011;12036;50.858;4.472;2023-09-07T02:25:07;9.35;;;5.57;;
23714;SDS011;12036;50.858;4.472;2023-09-07T02:27:33;5.78;;;5.15;;
23714;SDS011;12036;50.858;4.472;2023-09-07T02:29:59;9.80;;;5.72;;
23714;SDS011;12036;50.858;4.472;2023-09-07T02:32:24;6.40;;;5.05;;
23714;SDS011;12036;50.858;4.472;2023-09-07T02:34:50;13.25;;;6.63;;
23714;SDS011;12036;50.858;4.472;2023-09-07T02:37:16;10.35;;;5.10;;
23714;SDS011;12036;50.858;4.472;2023-09-07T02:39:42;10.52;;;6.18;;
23714;SDS011;12036;50.858;4.472;2023-09-07T02:42:08;7.78;;;6.30;;
23714;SDS011;12036;50.858;4.472;2023-09-07T02:44:34;7.55;;;5.55;;
23714;SDS011;12036;50.858;4.472;2023-09-07T02:47:00;7.95;;;5.57;;
23714;SDS011;12036;50.858;4.472;2023-09-07T02:49:26;8.18;;;5.72;;
23714;SDS011;12036;50.858;4.472;2023-09-07T02:51:52;7.97;;;5.85;;
23714;SDS011;12036;50.858;4.472;2023-09-07T02:54:18;7.00;;;5.43;;
23714;SDS011;12036;50.858;4.472;2023-09-07T02:56:43;8.18;;;5.75;;
23714;SDS011;12036;50.858;4.472;2023-09-07T02:59:09;7.90;;;5.85;;
23714;SDS011;12036;50.858;4.472;2023-09-07T03:01:34;11.55;;;5.93;;
23714;SDS011;12036;50.858;4.472;2023-09-07T03:04:00;7.10;;;6.15;;
23714;SDS011;12036;50.858;4.472;2023-09-07T03:06:26;7.63;;;5.72;;
23714;SDS011;12036;50.858;4.472;2023-09-07T03:08:52;7.03;;;5.63;;
23714;SDS011;12036;50.858;4.472;2023-09-07T03:11:17;11.48;;;5.75;;
23714;SDS011;12036;50.858;4.472;2023-09-07T03:13:43;6.75;;;5.32;;
23714;SDS011;12036;50.858;4.472;2023-09-07T03:16:09;9.02;;;5.43;;
23714;SDS011;12036;50.858;4.472;2023-09-07T03:18:35;7.80;;;5.55;;
23714;SDS011;12036;50.858;4.472;2023-09-07T03:21:01;7.05;;;5.68;;
23714;SDS011;12036;50.858;4.472;2023-09-07T03:23:31;7.95;;;5.88;;
23714;SDS011;12036;50.858;4.472;2023-09-07T03:25:58;10.55;;;6.72;;
23714;SDS011;12036;50.858;4.472;2023-09-07T03:28:24;12.27;;;5.88;;
23714;SDS011;12036;50.858;4.472;2023-09-07T03:30:50;8.82;;;5.88;;
23714;SDS011;12036;50.858;4.472;2023-09-07T03:33:17;8.90;;;5.88;;
23714;SDS011;12036;50.858;4.472;2023-09-07T03:35:42;7.47;;;5.68;;
23714;SDS011;12036;50.858;4.472;2023-09-07T03:38:08;7.35;;;5.90;;
23714;SDS011;12036;50.858;4.472;2023-09-07T03:40:33;8.00;;;5.75;;
23714;SDS011;12036;50.858;4.472;2023-09-07T03:42:59;9.20;;;5.35;;
23714;SDS011;12036;50.858;4.472;2023-09-07T03:45:25;10.25;;;5.82;;
23714;SDS011;12036;50.858;4.472;2023-09-07T03:47:50;10.40;;;5.97;;
23714;SDS011;12036;50.858;4.472;2023-09-07T03:50:16;12.15;;;5.78;;
23714;SDS011;12036;50.858;4.472;2023-09-07T03:52:42;11.00;;;5.97;;
23714;SDS011;12036;50.858;4.472;2023-09-07T03:55:07;6.47;;;5.32;;
23714;SDS011;12036;50.858;4.472;2023-09-07T03:57:33;9.05;;;6.65;;
23714;SDS011;12036;50.858;4.472;2023-09-07T03:59:59;7.25;;;5.60;;
23714;SDS011;12036;50.858;4.472;2023-09-07T04:02:25;8.13;;;5.55;;
23714;SDS011;12036;50.858;4.472;2023-09-07T04:04:52;9.05;;;5.40;;
23714;SDS011;12036;50.858;4.472;2023-09-07T04:07:18;8.15;;;5.47;;
23714;SDS011;12036;50.858;4.472;2023-09-07T04:09:45;10.40;;;5.78;;
23714;SDS011;12036;50.858;4.472;2023-09-07T04:12:11;7.93;;;5.97;;
23714;SDS011;12036;50.858;4.472;2023-09-07T04:14:37;7.63;;;5.32;;
23714;SDS011;12036;50.858;4.472;2023-09-07T04:17:03;9.88;;;5.45;;
23714;SDS011;12036;50.858;4.472;2023-09-07T04:19:29;7.03;;;5.47;;
23714;SDS011;12036;50.858;4.472;2023-09-07T04:21:56;7.32;;;5.45;;
23714;SDS011;12036;50.858;4.472;2023-09-07T04:24:22;9.25;;;5.55;;
23714;SDS011;12036;50.858;4.472;2023-09-07T04:26:48;11.60;;;6.10;;
23714;SDS011;12036;50.858;4.472;2023-09-07T04:29:14;8.07;;;5.22;;
23714;SDS011;12036;50.858;4.472;2023-09-07T04:31:41;9.95;;;6.03;;
23714;SDS011;12036;50.858;4.472;2023-09-07T04:34:07;9.10;;;6.03;;
23714;SDS011;12036;50.858;4.472;2023-09-07T04:36:33;7.63;;;5.97;;
23714;SDS011;12036;50.858;4.472;2023-09-07T04:38:58;7.47;;;5.30;;
23714;SDS011;12036;50.858;4.472;2023-09-07T04:41:24;9.98;;;5.55;;
23714;SDS011;12036;50.858;4.472;2023-09-07T04:43:49;9.57;;;5.88;;
23714;SDS011;12036;50.858;4.472;2023-09-07T04:46:15;9.77;;;6.75;;
23714;SDS011;12036;50.858;4.472;2023-09-07T04:48:42;7.47;;;5.50;;
23714;SDS011;12036;50.858;4.472;2023-09-07T04:51:08;10.60;;;6.07;;
23714;SDS011;12036;50.858;4.472;2023-09-07T04:53:37;10.32;;;6.25;;
23714;SDS011;12036;50.858;4.472;2023-09-07T04:56:04;8.40;;;6.00;;
23714;SDS011;12036;50.858;4.472;2023-09-07T04:58:31;10.93;;;6.60;;
23714;SDS011;12036;50.858;4.472;2023-09-07T05:01:07;8.80;;;6.18;;
23714;SDS011;12036;50.858;4.472;2023-09-07T05:03:35;9.45;;;6.32;;
23714;SDS011;12036;50.858;4.472;2023-09-07T05:06:01;11.38;;;6.88;;
23714;SDS011;12036;50.858;4.472;2023-09-07T05:08:30;14.32;;;6.30;;
23714;SDS011;12036;50.858;4.472;2023-09-07T05:10:56;9.90;;;6.60;;
23714;SDS011;12036;50.858;4.472;2023-09-07T05:13:23;8.70;;;6.63;;
23714;SDS011;12036;50.858;4.472;2023-09-07T05:15:49;7.18;;;5.90;;
23714;SDS011;12036;50.858;4.472;2023-09-07T05:18:16;8.05;;;6.50;;
23714;SDS011;12036;50.858;4.472;2023-09-07T05:20:42;10.73;;;5.65;;
23714;SDS011;12036;50.858;4.472;2023-09-07T05:23:13;10.30;;;6.47;;
23714;SDS011;12036;50.858;4.472;2023-09-07T05:25:50;9.00;;;6.10;;
23714;SDS011;12036;50.858;4.472;2023-09-07T05:28:17;8.95;;;6.18;;
23714;SDS011;12036;50.858;4.472;2023-09-07T05:30:43;9.60;;;6.80;;
23714;SDS011;12036;50.858;4.472;2023-09-07T05:33:10;11.27;;;6.75;;
23714;SDS011;12036;50.858;4.472;2023-09-07T05:35:36;11.07;;;8.13;;
23714;SDS011;12036;50.858;4.472;2023-09-07T05:38:03;12.10;;;7.15;;
23714;SDS011;12036;50.858;4.472;2023-09-07T05:40:30;9.23;;;6.45;;
23714;SDS011;12036;50.858;4.472;2023-09-07T05:43:00;9.40;;;7.18;;
23714;SDS011;12036;50.858;4.472;2023-09-07T05:45:25;10.02;;;7.03;;
23714;SDS011;12036;50.858;4.472;2023-09-07T05:47:51;10.85;;;7.38;;
23714;SDS011;12036;50.858;4.472;2023-09-07T05:50:16;9.10;;;6.90;;
23714;SDS011;12036;50.858;4.472;2023-09-07T05:52:42;11.15;;;7.45;;
23714;SDS011;12036;50.858;4.472;2023-09-07T05:55:08;11.63;;;8.07;;
23714;SDS011;12036;50.858;4.472;2023-09-07T05:57:33;13.57;;;7.40;;
23714;SDS011;12036;50.858;4.472;2023-09-07T05:59:59;10.65;;;7.70;;
23714;SDS011;12036;50.858;4.472;2023-09-07T06:02:25;10.80;;;8.05;;
23714;SDS011;12036;50.858;4.472;2023-09-07T06:04:50;10.02;;;7.55;;
23714;SDS011;12036;50.858;4.472;2023-09-07T06:07:16;11.65;;;7.95;;
23714;SDS011;12036;50.858;4.472;2023-09-07T06:09:42;12.50;;;8.43;;
23714;SDS011;12036;50.858;4.472;2023-09-07T06:12:07;14.02;;;8.55;;
23714;SDS011;12036;50.858;4.472;2023-09-07T06:14:33;14.77;;;8.50;;
23714;SDS011;12036;50.858;4.472;2023-09-07T06:16:58;18.55;;;8.30;;
23714;SDS011;12036;50.858;4.472;2023-09-07T06:19:24;12.27;;;8.35;;
23714;SDS011;12036;50.858;4.472;2023-09-07T06:21:49;11.05;;;8.27;;
23714;SDS011;12036;50.858;4.472;2023-09-07T06:24:15;12.27;;;8.82;;
23714;SDS011;12036;50.858;4.472;2023-09-07T06:26:41;9.88;;;8.27;;
23714;SDS011;12036;50.858;4.472;2023-09-07T06:29:09;13.77;;;8.38;;
23714;SDS011;12036;50.858;4.472;2023-09-07T06:31:35;10.77;;;8.07;;
23714;SDS011;12036;50.858;4.472;2023-09-07T06:34:00;10.05;;;7.95;;
23714;SDS011;12036;50.858;4.472;2023-09-07T06:36:26;11.18;;;8.43;;
23714;SDS011;12036;50.858;4.472;2023-09-07T06:38:51;11.95;;;7.30;;
23714;SDS011;12036;50.858;4.472;2023-09-07T06:41:17;12.05;;;7.75;;
23714;SDS011;12036;50.858;4.472;2023-09-07T06:43:43;10.18;;;6.97;;
23714;SDS011;12036;50.858;4.472;2023-09-07T06:46:08;11.98;;;7.72;;
23714;SDS011;12036;50.858;4.472;2023-09-07T06:48:34;9.00;;;7.07;;
23714;SDS011;12036;50.858;4.472;2023-09-07T06:51:03;11.30;;;7.25;;
23714;SDS011;12036;50.858;4.472;2023-09-07T06:53:30;9.35;;;6.80;;
23714;SDS011;12036;50.858;4.472;2023-09-07T06:55:59;9.57;;;6.35;;
23714;SDS011;12036;50.858;4.472;2023-09-07T06:58:26;8.55;;;5.50;;
23714;SDS011;12036;50.858;4.472;2023-09-07T07:00:52;8.77;;;5.95;;
23714;SDS011;12036;50.858;4.472;2023-09-07T07:03:21;11.45;;;5.30;;
23714;SDS011;12036;50.858;4.472;2023-09-07T07:05:47;8.50;;;5.43;;
23714;SDS011;12036;50.858;4.472;2023-09-07T07:08:13;6.13;;;4.90;;
23714;SDS011;12036;50.858;4.472;2023-09-07T07:10:38;8.57;;;5.00;;
23714;SDS011;12036;50.858;4.472;2023-09-07T07:13:04;7.97;;;4.65;;
23714;SDS011;12036;50.858;4.472;2023-09-07T07:15:29;9.00;;;5.15;;
23714;SDS011;12036;50.858;4.472;2023-09-07T07:17:55;6.07;;;4.95;;
23714;SDS011;12036;50.858;4.472;2023-09-07T07:20:21;6.22;;;4.88;;
23714;SDS011;12036;50.858;4.472;2023-09-07T07:22:46;6.05;;;4.82;;
23714;SDS011;12036;50.858;4.472;2023-09-07T07:25:12;8.63;;;5.85;;
23714;SDS011;12036;50.858;4.472;2023-09-07T07:27:38;6.65;;;5.00;;
23714;SDS011;12036;50.858;4.472;2023-09-07T07:30:04;6.47;;;5.00;;
23714;SDS011;12036;50.858;4.472;2023-09-07T07:32:29;7.82;;;4.20;;
23714;SDS011;12036;50.858;4.472;2023-09-07T07:34:55;6.55;;;4.70;;
23714;SDS011;12036;50.858;4.472;2023-09-07T07:37:22;4.75;;;3.67;;
23714;SDS011;12036;50.858;4.472;2023-09-07T07:39:47;6.65;;;4.55;;
23714;SDS011;12036;50.858;4.472;2023-09-07T07:42:13;5.30;;;4.22;;
23714;SDS011;12036;50.858;4.472;2023-09-07T07:44:39;5.70;;;4.05;;
23714;SDS011;12036;50.858;4.472;2023-09-07T07:47:04;6.78;;;4.10;;
23714;SDS011;12036;50.858;4.472;2023-09-07T07:49:30;8.48;;;4.43;;
23714;SDS011;12036;50.858;4.472;2023-09-07T07:51:56;7.43;;;3.97;;
23714;SDS011;12036;50.858;4.472;2023-09-07T07:54:23;5.72;;;4.25;;
23714;SDS011;12036;50.858;4.472;2023-09-07T07:56:49;9.70;;;4.35;;
23714;SDS011;12036;50.858;4.472;2023-09-07T07:59:15;4.50;;;4.05;;
23714;SDS011;12036;50.858;4.472;2023-09-07T08:01:41;4.25;;;3.85;;
23714;SDS011;12036;50.858;4.472;2023-09-07T08:04:07;6.78;;;4.18;;
23714;SDS011;12036;50.858;4.472;2023-09-07T08:06:33;5.03;;;4.40;;
23714;SDS011;12036;50.858;4.472;2023-09-07T08:08:59;5.75;;;4.15;;
23714;SDS011;12036;50.858;4.472;2023-09-07T08:11:25;5.68;;;4.30;;
23714;SDS011;12036;50.858;4.472;2023-09-07T08:13:52;8.02;;;3.88;;
23714;SDS011;12036;50.858;4.472;2023-09-07T08:16:18;8.45;;;3.83;;
23714;SDS011;12036;50.858;4.472;2023-09-07T08:18:43;8.27;;;4.47;;
23714;SDS011;12036;50.858;4.472;2023-09-07T08:21:09;4.90;;;4.03;;
23714;SDS011;12036;50.858;4.472;2023-09-07T08:23:35;4.75;;;3.75;;
23714;SDS011;12036;50.858;4.472;2023-09-07T08:26:01;7.72;;;4.15;;
23714;SDS011;12036;50.858;4.472;2023-09-07T08:28:28;5.88;;;3.70;;
23714;SDS011;12036;50.858;4.472;2023-09-07T08:30:54;5.43;;;4.00;;
23714;SDS011;12036;50.858;4.472;2023-09-07T08:33:20;5.18;;;3.97;;
23714;SDS011;12036;50.858;4.472;2023-09-07T08:35:53;9.45;;;4.20;;
23714;SDS011;12036;50.858;4.472;2023-09-07T08:38:20;5.65;;;3.88;;
23714;SDS011;12036;50.858;4.472;2023-09-07T08:40:55;7.30;;;3.80;;
23714;SDS011;12036;50.858;4.472;2023-09-07T08:43:27;6.35;;;3.90;;
23714;SDS011;12036;50.858;4.472;2023-09-07T08:45:55;9.05;;;4.10;;
23714;SDS011;12036;50.858;4.472;2023-09-07T08:48:29;11.20;;;4.25;;
23714;SDS011;12036;50.858;4.472;2023-09-07T08:50:55;6.82;;;3.45;;
23714;SDS011;12036;50.858;4.472;2023-09-07T08:53:21;7.22;;;3.80;;
23714;SDS011;12036;50.858;4.472;2023-09-07T08:55:48;5.63;;;3.35;;
23714;SDS011;12036;50.858;4.472;2023-09-07T08:58:14;4.93;;;3.80;;
23714;SDS011;12036;50.858;4.472;2023-09-07T09:00:40;4.93;;;3.80;;
23714;SDS011;12036;50.858;4.472;2023-09-07T09:03:08;8.63;;;3.47;;
23714;SDS011;12036;50.858;4.472;2023-09-07T09:05:35;3.85;;;3.08;;
23714;SDS011;12036;50.858;4.472;2023-09-07T09:08:03;5.03;;;3.20;;
23714;SDS011;12036;50.858;4.472;2023-09-07T09:10:30;4.03;;;3.60;;
23714;SDS011;12036;50.858;4.472;2023-09-07T09:12:55;7.07;;;2.78;;
23714;SDS011;12036;50.858;4.472;2023-09-07T09:15:22;5.50;;;3.70;;
23714;SDS011;12036;50.858;4.472;2023-09-07T09:17:47;5.80;;;3.22;;
23714;SDS011;12036;50.858;4.472;2023-09-07T09:20:23;4.13;;;3.17;;
23714;SDS011;12036;50.858;4.472;2023-09-07T09:22:53;5.38;;;3.50;;
23714;SDS011;12036;50.858;4.472;2023-09-07T09:27:47;5.00;;;3.33;;
23714;SDS011;12036;50.858;4.472;2023-09-07T09:30:13;6.20;;;3.10;;
23714;SDS011;12036;50.858;4.472;2023-09-07T09:32:41;6.57;;;3.08;;
23714;SDS011;12036;50.858;4.472;2023-09-07T09:35:08;3.97;;;2.80;;
23714;SDS011;12036;50.858;4.472;2023-09-07T09:37:34;4.00;;;2.92;;
23714;SDS011;12036;50.858;4.472;2023-09-07T09:40:14;4.85;;;2.63;;
23714;SDS011;12036;50.858;4.472;2023-09-07T09:42:41;3.10;;;2.78;;
23714;SDS011;12036;50.858;4.472;2023-09-07T09:45:08;4.47;;;3.20;;
23714;SDS011;12036;50.858;4.472;2023-09-07T09:47:40;5.50;;;3.25;;
23714;SDS011;12036;50.858;4.472;2023-09-07T09:50:07;5.93;;;3.63;;
23714;SDS011;12036;50.858;4.472;2023-09-07T09:52:34;4.28;;;3.30;;
23714;SDS011;12036;50.858;4.472;2023-09-07T09:55:03;4.13;;;3.22;;
23714;SDS011;12036;50.858;4.472;2023-09-07T09:57:32;5.57;;;3.22;;
23714;SDS011;12036;50.858;4.472;2023-09-07T09:59:59;6.60;;;3.22;;
23714;SDS011;12036;50.858;4.472;2023-09-07T10:02:31;4.25;;;3.65;;
23714;SDS011;12036;50.858;4.472;2023-09-07T10:04:59;4.13;;;2.80;;
23714;SDS011;12036;50.858;4.472;2023-09-07T10:07:44;3.97;;;3.10;;
23714;SDS011;12036;50.858;4.472;2023-09-07T10:10:13;6.07;;;3.10;;
23714;SDS011;12036;50.858;4.472;2023-09-07T10:12:43;4.88;;;2.92;;
23714;SDS011;12036;50.858;4.472;2023-09-07T10:15:26;3.90;;;3.30;;
23714;SDS011;12036;50.858;4.472;2023-09-07T10:18:11;4.10;;;2.67;;
23714;SDS011;12036;50.858;4.472;2023-09-07T10:20:55;6.28;;;3.30;;
23714;SDS011;12036;50.858;4.472;2023-09-07T10:23:23;7.07;;;3.30;;
23714;SDS011;12036;50.858;4.472;2023-09-07T10:26:13;4.53;;;3.17;;
23714;SDS011;12036;50.858;4.472;2023-09-07T10:28:41;3.38;;;3.08;;
23714;SDS011;12036;50.858;4.472;2023-09-07T10:31:17;5.57;;;2.80;;
23714;SDS011;12036;50.858;4.472;2023-09-07T10:33:45;6.35;;;3.17;;
23714;SDS011;12036;50.858;4.472;2023-09-07T10:36:21;4.55;;;3.10;;
23714;SDS011;12036;50.858;4.472;2023-09-07T10:38:52;6.55;;;3.38;;
23714;SDS011;12036;50.858;4.472;2023-09-07T10:41:19;3.85;;;3.17;;
23714;SDS011;12036;50.858;4.472;2023-09-07T10:43:49;4.60;;;2.97;;
23714;SDS011;12036;50.858;4.472;2023-09-07T10:46:19;4.32;;;3.33;;
23714;SDS011;12036;50.858;4.472;2023-09-07T10:48:53;6.18;;;3.13;;
23714;SDS011;12036;50.858;4.472;2023-09-07T10:51:21;4.90;;;3.05;;
23714;SDS011;12036;50.858;4.472;2023-09-07T10:53:47;5.38;;;2.72;;
23714;SDS011;12036;50.858;4.472;2023-09-07T10:56:13;4.20;;;2.67;;
23714;SDS011;12036;50.858;4.472;2023-09-07T10:58:39;3.58;;;2.80;;
23714;SDS011;12036;50.858;4.472;2023-09-07T11:01:07;7.25;;;2.92;;
23714;SDS011;12036;50.858;4.472;2023-09-07T11:03:33;3.92;;;2.60;;
23714;SDS011;12036;50.858;4.472;2023-09-07T11:08:44;4.10;;;2.38;;
23714;SDS011;12036;50.858;4.472;2023-09-07T11:11:11;3.50;;;2.45;;
23714;SDS011;12036;50.858;4.472;2023-09-07T11:13:37;4.35;;;2.50;;
23714;SDS011;12036;50.858;4.472;2023-09-07T11:16:06;2.90;;;2.60;;
23714;SDS011;12036;50.858;4.472;2023-09-07T11:18:33;4.65;;;2.50;;
23714;SDS011;12036;50.858;4.472;2023-09-07T11:21:02;3.75;;;2.67;;
23714;SDS011;12036;50.858;4.472;2023-09-07T11:23:32;3.58;;;2.58;;
23714;SDS011;12036;50.858;4.472;2023-09-07T11:26:12;4.55;;;2.60;;
23714;SDS011;12036;50.858;4.472;2023-09-07T11:28:39;3.40;;;2.20;;
23714;SDS011;12036;50.858;4.472;2023-09-07T11:31:06;4.30;;;2.42;;
23714;SDS011;12036;50.858;4.472;2023-09-07T11:33:32;4.60;;;2.20;;
23714;SDS011;12036;50.858;4.472;2023-09-07T11:35:58;4.50;;;2.20;;
23714;SDS011;12036;50.858;4.472;2023-09-07T11:38:28;2.65;;;2.30;;
23714;SDS011;12036;50.858;4.472;2023-09-07T11:40:55;3.72;;;2.28;;
23714;SDS011;12036;50.858;4.472;2023-09-07T11:43:21;3.80;;;2.30;;
23714;SDS011;12036;50.858;4.472;2023-09-07T11:45:47;2.55;;;2.35;;
23714;SDS011;12036;50.858;4.472;2023-09-07T11:48:14;4.10;;;2.45;;
23714;SDS011;12036;50.858;4.472;2023-09-07T11:50:40;3.35;;;2.13;;
23714;SDS011;12036;50.858;4.472;2023-09-07T11:53:06;4.22;;;2.70;;
23714;SDS011;12036;50.858;4.472;2023-09-07T11:55:33;4.13;;;2.47;;
23714;SDS011;12036;50.858;4.472;2023-09-07T11:58:00;4.80;;;2.70;;
23714;SDS011;12036;50.858;4.472;2023-09-07T12:00:32;2.60;;;2.40;;
23714;SDS011;12036;50.858;4.472;2023-09-07T12:02:58;2.60;;;2.20;;
23714;SDS011;12036;50.858;4.472;2023-09-07T12:05:24;2.70;;;2.33;;
23714;SDS011;12036;50.858;4.472;2023-09-07T12:07:49;3.60;;;2.60;;
23714;SDS011;12036;50.858;4.472;2023-09-07T12:10:15;3.30;;;2.72;;
23714;SDS011;12036;50.858;4.472;2023-09-07T12:12:41;3.67;;;2.53;;
23714;SDS011;12036;50.858;4.472;2023-09-07T12:15:07;3.08;;;2.65;;
23714;SDS011;12036;50.858;4.472;2023-09-07T12:17:34;7.25;;;2.92;;
23714;SDS011;12036;50.858;4.472;2023-09-07T12:20:00;4.60;;;2.88;;
23714;SDS011;12036;50.858;4.472;2023-09-07T12:22:29;5.38;;;2.70;;
23714;SDS011;12036;50.858;4.472;2023-09-07T12:24:55;4.43;;;2.67;;
23714;SDS011;12036;50.858;4.472;2023-09-07T12:27:21;5.15;;;3.08;;
23714;SDS011;12036;50.858;4.472;2023-09-07T12:29:47;4.43;;;2.83;;
23714;SDS011;12036;50.858;4.472;2023-09-07T12:32:13;7.03;;;2.95;;
23714;SDS011;12036;50.858;4.472;2023-09-07T12:34:39;4.88;;;3.00;;
23714;SDS011;12036;50.858;4.472;2023-09-07T12:37:05;3.78;;;3.00;;
23714;SDS011;12036;50.858;4.472;2023-09-07T12:39:31;5.78;;;2.90;;
23714;SDS011;12036;50.858;4.472;2023-09-07T12:41:57;3.35;;;2.75;;
23714;SDS011;12036;50.858;4.472;2023-09-07T12:44:23;3.28;;;2.80;;
23714;SDS011;12036;50.858;4.472;2023-09-07T12:46:49;5.18;;;3.00;;
23714;SDS011;12036;50.858;4.472;2023-09-07T12:49:14;4.95;;;3.40;;
23714;SDS011;12036;50.858;4.472;2023-09-07T12:51:40;3.42;;;3.03;;
23714;SDS011;12036;50.858;4.472;2023-09-07T12:54:06;4.85;;;2.72;;
23714;SDS011;12036;50.858;4.472;2023-09-07T12:56:32;6.05;;;3.22;;
23714;SDS011;12036;50.858;4.472;2023-09-07T12:58:58;4.93;;;3.30;;
23714;SDS011;12036;50.858;4.472;2023-09-07T13:01:25;4.30;;;3.72;;
23714;SDS011;12036;50.858;4.472;2023-09-07T13:03:51;3.83;;;3.28;;
23714;SDS011;12036;50.858;4.472;2023-09-07T13:06:16;5.35;;;2.85;;
23714;SDS011;12036;50.858;4.472;2023-09-07T13:08:43;6.00;;;2.85;;
23714;SDS011;12036;50.858;4.472;2023-09-07T13:11:09;9.43;;;3.10;;
23714;SDS011;12036;50.858;4.472;2023-09-07T13:13:35;4.03;;;3.33;;
23714;SDS011;12036;50.858;4.472;2023-09-07T13:16:01;4.65;;;3.30;;
23714;SDS011;12036;50.858;4.472;2023-09-07T13:18:27;3.17;;;2.88;;
23714;SDS011;12036;50.858;4.472;2023-09-07T13:20:52;6.20;;;3.20;;
23714;SDS011;12036;50.858;4.472;2023-09-07T13:23:24;3.88;;;2.83;;
23714;SDS011;12036;50.858;4.472;2023-09-07T13:25:59;7.35;;;3.20;;
23714;SDS011;12036;50.858;4.472;2023-09-07T13:28:26;3.33;;;2.75;;
23714;SDS011;12036;50.858;4.472;2023-09-07T13:30:51;3.78;;;3.30;;
23714;SDS011;12036;50.858;4.472;2023-09-07T13:33:17;5.43;;;3.38;;
23714;SDS011;12036;50.858;4.472;2023-09-07T13:35:43;8.98;;;3.33;;
23714;SDS011;12036;50.858;4.472;2023-09-07T13:38:09;8.63;;;3.00;;
23714;SDS011;12036;50.858;4.472;2023-09-07T13:40:35;4.75;;;2.85;;
23714;SDS011;12036;50.858;4.472;2023-09-07T13:43:00;5.82;;;2.92;;
23714;SDS011;12036;50.858;4.472;2023-09-07T13:45:26;8.25;;;4.03;;
23714;SDS011;12036;50.858;4.472;2023-09-07T13:47:54;4.22;;;3.28;;
23714;SDS011;12036;50.858;4.472;2023-09-07T13:50:20;3.90;;;3.08;;
23714;SDS011;12036;50.858;4.472;2023-09-07T13:52:45;3.97;;;3.33;;
23714;SDS011;12036;50.858;4.472;2023-09-07T13:55:11;5.20;;;2.88;;
23714;SDS011;12036;50.858;4.472;2023-09-07T13:57:37;4.28;;;3.00;;
23714;SDS011;12036;50.858;4.472;2023-09-07T14:00:02;3.90;;;3.50;;
23714;SDS011;12036;50.858;4.472;2023-09-07T14:02:30;5.13;;;3.25;;
23714;SDS011;12036;50.858;4.472;2023-09-07T14:04:57;3.40;;;3.05;;
23714;SDS011;12036;50.858;4.472;2023-09-07T14:07:23;8.07;;;3.17;;
23714;SDS011;12036;50.858;4.472;2023-09-07T14:09:51;4.30;;;3.30;;
23714;SDS011;12036;50.858;4.472;2023-09-07T14:12:17;4.65;;;3.10;;
23714;SDS011;12036;50.858;4.472;2023-09-07T14:14:43;5.88;;;3.15;;
23714;SDS011;12036;50.858;4.472;2023-09-07T14:17:08;4.68;;;3.60;;
23714;SDS011;12036;50.858;4.472;2023-09-07T14:19:34;9.15;;;3.33;;
23714;SDS011;12036;50.858;4.472;2023-09-07T14:21:59;4.38;;;3.60;;
23714;SDS011;12036;50.858;4.472;2023-09-07T14:24:25;3.47;;;3.17;;
23714;SDS011;12036;50.858;4.472;2023-09-07T14:26:51;7.07;;;3.47;;
23714;SDS011;12036;50.858;4.472;2023-09-07T14:29:17;7.95;;;3.50;;
23714;SDS011;12036;50.858;4.472;2023-09-07T14:31:42;7.20;;;3.20;;
23714;SDS011;12036;50.858;4.472;2023-09-07T14:34:10;6.65;;;3.28;;
23714;SDS011;12036;50.858;4.472;2023-09-07T14:36:36;5.88;;;3.30;;
23714;SDS011;12036;50.858;4.472;2023-09-07T14:39:01;6.20;;;3.50;;
23714;SDS011;12036;50.858;4.472;2023-09-07T14:41:28;4.00;;;3.10;;
23714;SDS011;12036;50.858;4.472;2023-09-07T14:43:55;8.57;;;3.50;;
23714;SDS011;12036;50.858;4.472;2023-09-07T14:46:21;4.93;;;3.25;;
23714;SDS011;12036;50.858;4.472;2023-09-07T14:48:48;7.72;;;3.30;;